createdAt,value
2018-05-02T00:00:09.573Z,5.03
2018-05-02T00:02:37.845Z,4.13
2018-05-02T00:05:06.365Z,4.10
2018-05-02T00:07:34.646Z,4.20
2018-05-02T00:10:02.916Z,3.50
2018-05-02T00:12:31.180Z,4.87
2018-05-02T00:14:59.604Z,4.70
2018-05-02T00:17:27.926Z,3.90
2018-05-02T00:19:56.964Z,4.60
2018-05-02T00:22:25.373Z,4.63
2018-05-02T00:24:53.665Z,4.47
2018-05-02T00:27:22.112Z,5.57
2018-05-02T00:29:50.373Z,4.50
2018-05-02T00:32:18.675Z,3.77
2018-05-02T00:34:47.187Z,3.87
2018-05-02T00:37:15.437Z,4.33
2018-05-02T00:39:43.755Z,3.30
2018-05-02T00:42:12.317Z,5.17
2018-05-02T00:44:40.847Z,5.30
2018-05-02T00:47:09.487Z,3.33
2018-05-02T00:49:37.729Z,5.43
2018-05-02T00:52:06.241Z,3.40
2018-05-02T00:54:34.481Z,4.47
2018-05-02T00:57:02.997Z,4.23
2018-05-02T00:59:31.338Z,3.30
2018-05-02T01:01:59.609Z,2.93
2018-05-02T01:04:28.093Z,4.13
2018-05-02T01:06:56.780Z,3.50
2018-05-02T01:09:25.207Z,3.23
2018-05-02T01:11:53.493Z,3.20
2018-05-02T01:14:21.760Z,5.00
2018-05-02T01:16:50.038Z,2.83
2018-05-02T01:19:18.390Z,2.47
2018-05-02T01:21:46.648Z,3.30
2018-05-02T01:24:14.921Z,3.17
2018-05-02T01:26:43.224Z,3.83
2018-05-02T01:29:11.625Z,4.83
2018-05-02T01:31:39.964Z,3.13
2018-05-02T01:34:08.377Z,2.57
2018-05-02T01:36:36.645Z,2.90
2018-05-02T01:39:05.105Z,2.80
2018-05-02T01:41:33.373Z,3.43
2018-05-02T01:44:02.135Z,2.50
2018-05-02T01:46:30.551Z,2.47
2018-05-02T01:49:10.898Z,2.90
2018-05-02T01:51:39.246Z,2.93
2018-05-02T01:54:08.284Z,3.23
2018-05-02T01:56:36.542Z,2.13
2018-05-02T01:59:04.977Z,2.57
2018-05-02T02:01:33.659Z,3.77
2018-05-02T02:04:02.032Z,2.50
2018-05-02T02:06:30.284Z,2.83
2018-05-02T02:08:58.595Z,2.63
2018-05-02T02:11:26.937Z,2.80
2018-05-02T02:13:55.595Z,2.40
2018-05-02T02:16:24.024Z,2.70
2018-05-02T02:18:52.680Z,2.50
2018-05-02T02:21:21.006Z,2.20
2018-05-02T02:23:49.405Z,2.93
2018-05-02T02:26:18.087Z,3.60
2018-05-02T02:28:47.134Z,3.33
2018-05-02T02:31:15.395Z,3.90
2018-05-02T02:33:43.656Z,2.50
2018-05-02T02:36:12.256Z,3.03
2018-05-02T02:38:40.646Z,2.27
2018-05-02T02:41:08.958Z,2.20
2018-05-02T02:43:37.487Z,3.10
2018-05-02T02:46:05.733Z,2.30
2018-05-02T02:48:35.086Z,2.30
2018-05-02T02:51:03.369Z,2.10
2018-05-02T02:53:31.623Z,2.83
2018-05-02T02:55:59.925Z,2.07
2018-05-02T02:58:28.594Z,2.27
2018-05-02T03:00:56.957Z,3.10
2018-05-02T03:03:25.301Z,2.17
2018-05-02T03:05:53.977Z,2.63
2018-05-02T03:08:22.246Z,2.50
2018-05-02T03:10:50.510Z,1.87
2018-05-02T03:13:18.791Z,1.90
2018-05-02T03:15:47.251Z,1.83
2018-05-02T03:18:15.598Z,2.40
2018-05-02T03:20:43.950Z,2.20
2018-05-02T03:23:12.682Z,2.47
2018-05-02T03:25:41.096Z,2.03
2018-05-02T03:28:09.383Z,2.47
2018-05-02T03:30:37.850Z,1.93
2018-05-02T03:33:06.157Z,3.90
2018-05-02T03:35:35.186Z,1.97
2018-05-02T03:38:03.526Z,2.17
2018-05-02T03:40:31.986Z,2.30
2018-05-02T03:43:00.339Z,1.83
2018-05-02T03:45:29.013Z,1.97
2018-05-02T03:47:57.418Z,1.97
2018-05-02T03:50:25.726Z,2.10
2018-05-02T03:52:54.326Z,1.90
2018-05-02T03:55:22.571Z,2.13
2018-05-02T03:57:50.917Z,1.90
2018-05-02T04:00:31.050Z,2.20
2018-05-02T04:03:11.350Z,2.80
2018-05-02T04:05:51.383Z,2.03
2018-05-02T04:08:19.720Z,1.87
2018-05-02T04:10:48.384Z,1.93
2018-05-02T04:13:16.660Z,1.63
2018-05-02T04:15:44.938Z,2.30
2018-05-02T04:18:13.215Z,1.70
2018-05-02T04:20:41.594Z,2.10
2018-05-02T04:23:09.950Z,2.27
2018-05-02T04:25:38.239Z,2.13
2018-05-02T04:28:06.549Z,1.83
2018-05-02T04:30:35.161Z,1.70
2018-05-02T04:33:03.611Z,2.60
2018-05-02T04:35:31.882Z,2.03
2018-05-02T04:38:00.937Z,1.80
2018-05-02T04:40:29.309Z,1.90
2018-05-02T04:42:57.918Z,2.10
2018-05-02T04:45:26.380Z,1.50
2018-05-02T04:47:54.705Z,1.93
2018-05-02T04:50:23.140Z,1.83
2018-05-02T04:52:51.411Z,7.23
2018-05-02T04:55:20.525Z,1.70
2018-05-02T04:57:48.891Z,2.27
2018-05-02T05:00:20.422Z,2.50
2018-05-02T05:02:51.609Z,2.43
2018-05-02T05:05:19.910Z,2.20
2018-05-02T05:07:48.588Z,17.00
2018-05-02T05:10:18.098Z,27.10
2018-05-02T05:12:47.226Z,19.60
2018-05-02T05:15:17.947Z,62.97
2018-05-02T05:17:52.875Z,65.40
2018-05-02T05:20:31.646Z,91.20
2018-05-02T05:23:00.046Z,83.60
2018-05-02T05:25:30.229Z,75.23
2018-05-02T05:28:03.970Z,91.67
2018-05-02T05:30:32.471Z,103.93
2018-05-02T05:33:01.505Z,104.07
2018-05-02T05:35:29.842Z,112.33
2018-05-02T05:37:58.910Z,121.27
2018-05-02T05:40:27.306Z,136.30
2018-05-02T05:42:56.518Z,136.53
2018-05-02T05:45:24.968Z,124.27
2018-05-02T05:47:53.616Z,133.27
2018-05-02T05:50:22.090Z,135.17
2018-05-02T05:52:50.458Z,137.53
2018-05-02T05:55:18.750Z,139.97
2018-05-02T05:57:47.499Z,135.33
2018-05-02T06:00:15.851Z,138.03
2018-05-02T06:02:44.144Z,134.30
2018-05-02T06:05:12.952Z,124.70
2018-05-02T06:07:41.310Z,122.17
2018-05-02T06:10:09.606Z,110.60
2018-05-02T06:12:38.075Z,55.77
2018-05-02T06:15:06.361Z,68.40
2018-05-02T06:17:34.632Z,75.93
2018-05-02T06:20:03.150Z,72.43
2018-05-02T06:22:31.580Z,63.13
2018-05-02T06:24:59.863Z,69.27
2018-05-02T06:27:28.309Z,73.87
2018-05-02T06:29:56.715Z,80.80
2018-05-02T06:32:25.070Z,65.20
2018-05-02T06:34:53.470Z,60.63
2018-05-02T06:37:21.786Z,60.70
2018-05-02T06:39:50.825Z,60.40
2018-05-02T06:42:19.162Z,60.60
2018-05-02T06:44:48.188Z,75.53
2018-05-02T06:47:16.492Z,62.63
2018-05-02T06:49:45.264Z,62.27
2018-05-02T06:52:13.676Z,49.90
2018-05-02T06:54:41.960Z,57.43
2018-05-02T06:57:10.425Z,60.47
2018-05-02T06:59:38.706Z,44.20
2018-05-02T07:02:07.178Z,49.23
2018-05-02T07:04:35.549Z,48.57
2018-05-02T07:07:03.918Z,43.90
2018-05-02T07:09:32.331Z,45.30
2018-05-02T07:12:00.671Z,41.50
2018-05-02T07:14:29.070Z,40.97
2018-05-02T07:16:57.359Z,47.03
2018-05-02T07:19:26.694Z,38.70
2018-05-02T07:21:54.971Z,42.47
2018-05-02T07:24:23.457Z,40.53
2018-05-02T07:26:51.915Z,42.60
2018-05-02T07:29:20.210Z,41.60
2018-05-02T07:31:49.259Z,38.53
2018-05-02T07:34:17.535Z,38.17
2018-05-02T07:36:45.843Z,39.13
2018-05-02T07:39:14.116Z,39.73
2018-05-02T07:41:42.472Z,41.73
2018-05-02T07:44:10.766Z,32.00
2018-05-02T07:46:39.026Z,29.43
2018-05-02T07:49:07.303Z,34.57
2018-05-02T07:51:35.652Z,31.43
2018-05-02T07:54:05.982Z,36.47
2018-05-02T07:56:38.897Z,29.87
2018-05-02T07:59:08.007Z,33.90
2018-05-02T08:01:36.571Z,31.90
2018-05-02T08:04:04.954Z,31.67
2018-05-02T08:06:33.294Z,28.93
2018-05-02T08:09:01.713Z,32.90
2018-05-02T08:11:29.982Z,33.03
2018-05-02T08:13:58.695Z,28.93
2018-05-02T08:16:27.160Z,23.47
2018-05-02T08:18:55.440Z,29.27
2018-05-02T08:21:24.182Z,26.13
2018-05-02T08:23:52.868Z,24.30
2018-05-02T08:26:21.213Z,27.70
2018-05-02T08:28:49.578Z,26.77
2018-05-02T08:31:18.239Z,27.10
2018-05-02T08:33:46.698Z,24.60
2018-05-02T08:36:15.013Z,21.53
2018-05-02T08:38:43.277Z,21.37
2018-05-02T08:41:11.561Z,20.00
2018-05-02T08:43:39.933Z,20.27
2018-05-02T08:46:08.554Z,24.17
2018-05-02T08:48:37.594Z,25.23
2018-05-02T08:51:05.980Z,20.03
2018-05-02T08:53:34.289Z,22.27
2018-05-02T08:56:02.750Z,18.53
2018-05-02T08:58:31.111Z,21.30
2018-05-02T09:00:59.795Z,21.30
2018-05-02T09:03:28.199Z,15.07
2018-05-02T09:05:56.571Z,18.50
2018-05-02T09:08:24.920Z,17.60
2018-05-02T09:10:53.335Z,19.00
2018-05-02T09:13:21.710Z,22.33
2018-05-02T09:15:50.201Z,17.17
2018-05-02T09:18:18.685Z,16.77
2018-05-02T09:20:47.117Z,17.63
2018-05-02T09:23:15.517Z,14.43
2018-05-02T09:25:43.881Z,17.90
2018-05-02T09:28:12.537Z,14.30
2018-05-02T09:30:40.982Z,17.87
2018-05-02T09:33:09.247Z,17.63
2018-05-02T09:35:37.698Z,15.97
2018-05-02T09:38:05.974Z,15.87
2018-05-02T09:40:34.250Z,15.90
2018-05-02T09:43:02.513Z,16.77
2018-05-02T09:45:30.791Z,17.90
2018-05-02T09:47:59.067Z,18.23
2018-05-02T09:50:27.338Z,16.63
2018-05-02T09:52:55.646Z,19.60
2018-05-02T09:55:24.387Z,18.27
2018-05-02T09:57:52.837Z,16.33
2018-05-02T10:00:21.105Z,16.17
2018-05-02T10:02:49.569Z,17.03
2018-05-02T10:05:17.873Z,17.20
2018-05-02T10:07:47.549Z,17.00
2018-05-02T10:10:15.829Z,19.60
2018-05-02T10:12:44.351Z,16.70
2018-05-02T10:15:12.722Z,17.80
2018-05-02T10:17:41.076Z,16.80
2018-05-02T10:20:09.416Z,15.60
2018-05-02T10:22:38.761Z,14.47
2018-05-02T10:25:07.096Z,14.47
2018-05-02T10:27:35.538Z,18.20
2018-05-02T10:30:04.043Z,15.07
2018-05-02T10:32:32.581Z,16.57
2018-05-02T10:35:00.986Z,14.00
2018-05-02T10:37:29.296Z,15.17
2018-05-02T10:39:58.046Z,15.73
2018-05-02T10:42:26.350Z,14.73
2018-05-02T10:44:54.610Z,12.67
2018-05-02T10:47:22.903Z,15.53
2018-05-02T10:49:51.171Z,13.03
2018-05-02T10:52:19.561Z,12.00
2018-05-02T10:54:48.033Z,15.00
2018-05-02T10:57:16.286Z,15.20
2018-05-02T10:59:44.804Z,14.10
2018-05-02T11:02:13.085Z,13.53
2018-05-02T11:04:42.417Z,15.00
2018-05-02T11:07:10.855Z,12.10
2018-05-02T11:09:39.410Z,10.23
2018-05-02T11:12:07.822Z,11.43
2018-05-02T11:14:36.303Z,12.83
2018-05-02T11:17:04.578Z,12.37
2018-05-02T11:19:33.035Z,11.60
2018-05-02T11:22:01.421Z,11.60
2018-05-02T11:24:32.223Z,10.70
2018-05-02T11:27:00.600Z,10.00
2018-05-02T11:29:29.320Z,9.93
2018-05-02T11:31:57.987Z,12.90
2018-05-02T11:34:26.353Z,13.67
2018-05-02T11:36:54.730Z,11.10
2018-05-02T11:39:22.995Z,9.93
2018-05-02T11:41:51.273Z,10.97
2018-05-02T11:44:19.545Z,12.23
2018-05-02T11:46:47.813Z,11.17
2018-05-02T11:49:16.090Z,10.33
2018-05-02T11:51:44.366Z,12.30
2018-05-02T11:54:12.791Z,9.57
2018-05-02T11:56:41.151Z,11.20
2018-05-02T11:59:09.493Z,7.60
2018-05-02T12:01:37.922Z,8.30
2018-05-02T12:04:07.823Z,6.80
2018-05-02T12:06:36.228Z,13.03
2018-05-02T12:09:04.510Z,10.00
2018-05-02T12:11:32.778Z,6.77
2018-05-02T12:14:01.345Z,7.97
2018-05-02T12:16:29.751Z,9.20
2018-05-02T12:18:58.039Z,6.87
2018-05-02T12:21:26.508Z,7.80
2018-05-02T12:23:54.864Z,9.30
2018-05-02T12:26:23.268Z,7.17
2018-05-02T12:28:51.540Z,6.07
2018-05-02T12:31:19.989Z,8.80
2018-05-02T12:33:48.413Z,9.40
2018-05-02T12:36:16.714Z,9.57
2018-05-02T12:38:45.751Z,5.90
2018-05-02T12:41:14.819Z,7.67
2018-05-02T12:43:43.116Z,7.20
2018-05-02T12:46:11.391Z,9.27
2018-05-02T12:48:39.842Z,10.73
2018-05-02T12:51:08.281Z,6.20
2018-05-02T12:53:36.647Z,8.03
2018-05-02T12:56:05.081Z,6.13
2018-05-02T12:58:34.014Z,6.07
2018-05-02T13:01:02.447Z,7.53
2018-05-02T13:03:30.740Z,6.97
2018-05-02T13:05:59.154Z,9.03
2018-05-02T13:08:27.552Z,6.40
2018-05-02T13:10:55.904Z,10.63
2018-05-02T13:13:24.534Z,7.90
2018-05-02T13:15:52.974Z,8.13
2018-05-02T13:18:21.284Z,8.07
2018-05-02T13:20:49.553Z,6.57
2018-05-02T13:23:17.863Z,10.20
2018-05-02T13:25:46.178Z,5.00
2018-05-02T13:28:14.566Z,6.57
2018-05-02T13:30:42.981Z,6.53
2018-05-02T13:33:11.293Z,6.40
2018-05-02T13:35:39.806Z,6.53
2018-05-02T13:38:07.988Z,5.90
2018-05-02T13:40:36.465Z,7.87
2018-05-02T13:43:04.721Z,4.93
2018-05-02T13:45:33.229Z,4.90
2018-05-02T13:48:01.618Z,4.83
2018-05-02T13:50:29.987Z,9.00
2018-05-02T13:52:58.364Z,4.93
2018-05-02T13:55:26.672Z,4.13
2018-05-02T13:57:55.379Z,5.20
2018-05-02T14:00:23.877Z,8.63
2018-05-02T14:02:52.130Z,5.87
2018-05-02T14:05:20.790Z,3.17
2018-05-02T14:07:49.192Z,4.07
2018-05-02T14:10:17.927Z,6.03
2018-05-02T14:12:46.201Z,3.53
2018-05-02T14:15:14.958Z,4.70
2018-05-02T14:17:43.251Z,5.20
2018-05-02T14:20:11.762Z,5.20
2018-05-02T14:22:40.072Z,10.77
2018-05-02T14:25:08.352Z,10.77
2018-05-02T14:27:36.834Z,12.13
2018-05-02T14:30:05.278Z,3.80
2018-05-02T14:32:33.956Z,8.40
2018-05-02T14:35:02.412Z,4.17
2018-05-02T14:37:30.718Z,7.73
2018-05-02T14:39:59.395Z,8.57
2018-05-02T14:42:28.098Z,7.27
2018-05-02T14:44:56.516Z,5.47
2018-05-02T14:47:24.784Z,6.23
2018-05-02T14:49:53.042Z,7.77
2018-05-02T14:52:21.343Z,7.93
2018-05-02T14:54:49.586Z,6.87
2018-05-02T14:57:17.868Z,7.57
2018-05-02T14:59:46.123Z,8.90
2018-05-02T15:02:14.460Z,6.90
2018-05-02T15:04:42.906Z,11.03
2018-05-02T15:07:11.207Z,11.77
2018-05-02T15:09:39.643Z,5.13
2018-05-02T15:12:07.915Z,10.87
2018-05-02T15:14:36.401Z,9.53
2018-05-02T15:17:04.778Z,11.10
2018-05-02T15:19:33.470Z,10.47
2018-05-02T15:22:01.899Z,12.73
2018-05-02T15:24:30.162Z,8.07
2018-05-02T15:26:58.562Z,10.87
2018-05-02T15:29:27.590Z,10.23
2018-05-02T15:31:55.929Z,13.43
2018-05-02T15:34:24.380Z,9.93
2018-05-02T15:36:52.978Z,11.63
2018-05-02T15:39:21.266Z,10.47
2018-05-02T15:41:49.534Z,8.07
2018-05-02T15:44:18.174Z,6.50
2018-05-02T15:46:46.446Z,10.53
2018-05-02T15:49:15.009Z,6.27
2018-05-02T15:51:43.272Z,6.53
2018-05-02T15:54:12.306Z,15.70
2018-05-02T15:56:40.597Z,21.50
2018-05-02T15:59:08.862Z,11.63
2018-05-02T16:01:37.128Z,15.00
2018-05-02T16:04:06.256Z,10.73
2018-05-02T16:06:34.501Z,13.47
2018-05-02T16:09:03.186Z,11.90
2018-05-02T16:11:31.514Z,11.27
2018-05-02T16:14:05.815Z,10.10
2018-05-02T16:19:15.503Z,6.13
2018-05-02T16:21:44.114Z,9.67
2018-05-02T16:24:12.525Z,8.20
2018-05-02T16:26:40.893Z,11.30
2018-05-02T16:29:09.973Z,6.60
2018-05-02T16:31:38.267Z,10.10
2018-05-02T16:34:06.926Z,6.73
2018-05-02T16:36:35.283Z,8.70
2018-05-02T16:39:04.379Z,7.77
2018-05-02T16:41:34.335Z,8.33
2018-05-02T16:44:02.864Z,6.80
2018-05-02T16:46:31.402Z,8.60
2018-05-02T16:49:00.609Z,8.30
2018-05-02T16:51:29.046Z,12.40
2018-05-02T16:54:00.553Z,22.50
2018-05-02T16:56:35.108Z,29.17
2018-05-02T16:59:03.376Z,54.43
2018-05-02T17:01:31.709Z,87.03
2018-05-02T17:04:01.264Z,107.83
2018-05-02T17:06:31.074Z,134.10
2018-05-02T17:09:00.227Z,163.17
2018-05-02T17:11:30.231Z,162.87
2018-05-02T17:13:58.883Z,166.93
2018-05-02T17:16:27.516Z,156.40
2018-05-02T17:18:55.849Z,168.10
2018-05-02T17:21:24.287Z,156.90
2018-05-02T17:23:52.633Z,147.87
2018-05-02T17:26:21.010Z,132.67
2018-05-02T17:28:49.441Z,140.63
2018-05-02T17:31:17.822Z,127.77
2018-05-02T17:33:46.427Z,117.87
2018-05-02T17:36:14.894Z,133.67
2018-05-02T17:38:43.211Z,136.47
2018-05-02T17:41:11.584Z,123.17
2018-05-02T17:43:40.070Z,133.83
2018-05-02T17:46:08.533Z,136.83
2018-05-02T17:48:37.080Z,130.77
2018-05-02T17:51:06.373Z,123.63
2018-05-02T17:53:34.755Z,104.70
2018-05-02T17:56:03.093Z,112.93
2018-05-02T17:58:31.553Z,112.63
2018-05-02T18:00:59.901Z,104.53
2018-05-02T18:03:28.524Z,119.33
2018-05-02T18:05:57.253Z,130.97
2018-05-02T18:08:25.689Z,102.10
2018-05-02T18:10:53.994Z,100.23
2018-05-02T18:13:22.417Z,95.77
2018-05-02T18:15:50.701Z,102.33
2018-05-02T18:18:19.699Z,94.77
2018-05-02T18:20:47.962Z,91.87
2018-05-02T18:23:16.254Z,89.27
2018-05-02T18:25:44.541Z,85.17
2018-05-02T18:28:13.579Z,99.07
2018-05-02T18:30:41.886Z,88.10
2018-05-02T18:33:11.321Z,90.77
2018-05-02T18:35:39.674Z,89.73
2018-05-02T18:38:08.156Z,82.77
2018-05-02T18:40:36.633Z,82.70
2018-05-02T18:43:04.912Z,83.53
2018-05-02T18:45:33.195Z,69.57
2018-05-02T18:48:01.491Z,75.57
2018-05-02T18:50:29.967Z,73.27
2018-05-02T18:52:58.232Z,69.30
2018-05-02T18:55:26.998Z,69.10
2018-05-02T18:57:55.400Z,69.83
2018-05-02T19:00:23.772Z,70.60
2018-05-02T19:02:52.084Z,70.40
2018-05-02T19:05:21.121Z,65.63
2018-05-02T19:07:49.552Z,68.23
2018-05-02T19:10:19.027Z,61.10
2018-05-02T19:12:47.532Z,69.13
2018-05-02T19:15:15.899Z,73.57
2018-05-02T19:17:49.894Z,61.87
2018-05-02T19:20:23.784Z,67.33
2018-05-02T19:22:52.383Z,68.97
2018-05-02T19:25:26.416Z,67.83
2018-05-02T19:27:54.695Z,65.63
2018-05-02T19:30:23.064Z,57.27
2018-05-02T19:32:56.958Z,55.27
2018-05-02T19:35:25.287Z,56.30
2018-05-02T19:37:53.724Z,55.90
2018-05-02T19:40:27.609Z,58.13
2018-05-02T19:43:01.798Z,58.03
2018-05-02T19:45:30.084Z,52.00
2018-05-02T19:47:58.902Z,53.70
2018-05-02T19:50:27.578Z,52.47
2018-05-02T19:52:55.908Z,49.77
2018-05-02T19:55:24.373Z,45.00
2018-05-02T19:57:52.621Z,42.53
2018-05-02T20:00:26.464Z,40.80
2018-05-02T20:03:00.379Z,47.87
2018-05-02T20:05:28.661Z,42.43
2018-05-02T20:07:57.137Z,40.30
2018-05-02T20:10:31.351Z,39.20
2018-05-02T20:13:05.204Z,45.87
2018-05-02T20:15:33.483Z,42.97
2018-05-02T20:18:01.812Z,41.93
2018-05-02T20:20:30.087Z,44.00
2018-05-02T20:22:58.621Z,43.13
2018-05-02T20:25:27.023Z,40.33
2018-05-02T20:27:55.351Z,37.43
2018-05-02T20:30:23.806Z,37.47
2018-05-02T20:32:52.097Z,38.27
2018-05-02T20:35:20.508Z,37.43
2018-05-02T20:37:48.973Z,41.47
2018-05-02T20:40:17.267Z,38.70
2018-05-02T20:42:45.964Z,38.00
2018-05-02T20:45:14.662Z,35.00
2018-05-02T20:47:43.148Z,37.23
2018-05-02T20:50:11.388Z,37.63
2018-05-02T20:52:39.818Z,34.33
2018-05-02T20:55:08.263Z,33.60
2018-05-02T20:57:36.462Z,27.97
2018-05-02T21:00:04.867Z,34.43
2018-05-02T21:02:33.343Z,30.07
2018-05-02T21:05:01.627Z,31.73
2018-05-02T21:07:30.369Z,33.03
2018-05-02T21:09:59.006Z,33.70
2018-05-02T21:12:28.062Z,28.87
2018-05-02T21:14:56.466Z,27.20
2018-05-02T21:17:24.759Z,28.43
2018-05-02T21:19:53.217Z,25.33
2018-05-02T21:22:21.501Z,27.83
2018-05-02T21:24:50.207Z,27.70
2018-05-02T21:27:18.898Z,29.00
2018-05-02T21:29:47.953Z,26.50
2018-05-02T21:32:16.488Z,26.53
2018-05-02T21:34:45.002Z,26.40
2018-05-02T21:37:13.386Z,26.50
2018-05-02T21:39:42.010Z,26.63
2018-05-02T21:42:11.051Z,28.43
2018-05-02T21:44:39.490Z,23.50
2018-05-02T21:47:07.775Z,25.90
2018-05-02T21:49:36.445Z,26.40
2018-05-02T21:52:05.497Z,24.90
2018-05-02T21:54:33.815Z,20.80
2018-05-02T21:57:02.155Z,24.97
2018-05-02T21:59:30.639Z,24.80
2018-05-02T22:01:59.255Z,20.40
2018-05-02T22:04:29.179Z,20.87
2018-05-02T22:06:57.589Z,21.23
2018-05-02T22:09:26.025Z,23.50
2018-05-02T22:11:54.382Z,25.17
2018-05-02T22:14:22.786Z,23.00
2018-05-02T22:16:51.125Z,21.33
2018-05-02T22:19:19.814Z,19.07
2018-05-02T22:21:48.255Z,20.17
2018-05-02T22:24:16.603Z,21.43
2018-05-02T22:26:44.889Z,22.93
2018-05-02T22:29:13.582Z,18.73
2018-05-02T22:31:42.646Z,19.83
2018-05-02T22:34:11.047Z,21.57
2018-05-02T22:36:39.325Z,17.90
2018-05-02T22:39:08.038Z,18.43
2018-05-02T22:41:37.514Z,18.00
2018-05-02T22:44:06.008Z,19.23
2018-05-02T22:46:34.465Z,19.03
2018-05-02T22:49:02.726Z,19.00
2018-05-02T22:51:31.220Z,14.93
2018-05-02T22:53:59.836Z,14.87
2018-05-02T22:56:28.290Z,16.57
2018-05-02T22:58:56.561Z,15.47
2018-05-02T23:01:25.050Z,15.40
2018-05-02T23:03:53.670Z,15.97
2018-05-02T23:06:22.706Z,18.03
2018-05-02T23:08:51.099Z,13.27
2018-05-02T23:11:19.422Z,16.77
2018-05-02T23:13:48.457Z,16.07
2018-05-02T23:16:17.146Z,14.53
2018-05-02T23:18:45.551Z,15.77
2018-05-02T23:21:13.906Z,16.40
2018-05-02T23:23:42.311Z,14.00
2018-05-02T23:26:10.586Z,14.93
2018-05-02T23:28:39.035Z,13.73
2018-05-02T23:31:07.313Z,15.23
2018-05-02T23:33:35.728Z,14.57
2018-05-02T23:36:04.450Z,15.67
2018-05-02T23:38:32.857Z,11.17
2018-05-02T23:41:01.259Z,11.43
2018-05-02T23:43:29.616Z,10.90
2018-05-02T23:45:58.101Z,12.93
2018-05-02T23:48:26.384Z,11.73
2018-05-02T23:50:54.777Z,11.70
2018-05-02T23:53:23.135Z,13.50
2018-05-02T23:55:51.541Z,11.97
2018-05-02T23:58:19.833Z,11.63
